RJBB/KIX METAR and TAF weather

Enter ICAO airport designator
Station Type Date Time Source
RJBB METAR 2019/12/07 00:00 UTC NOAA

RJBB 070000Z 07004KT 9999 FEW015 SCT060 BKN160 07/03 Q1027 NOSIG


Station Type Date Time Source
RJBB Decoded METAR 2019/12/07 00:00 UTC NOAA

Kansai International Airport, Japan (RJBB) 34-25N 135-15E 8M
Dec 06, 2019 - 07:00 PM EST / 2019.12.07 0000 UTC
Wind: from the ENE (070 degrees) at 5 MPH (4 KT):0
Visibility: greater than 7 mile(s):0
Sky conditions: mostly cloudy
Temperature: 44 F (7 C)
Dew Point: 37 F (3 C)
Relative Humidity: 75%
Pressure (altimeter): 30.33 in. Hg (1027 hPa)
ob: RJBB 070000Z 07004KT 9999 FEW015 SCT060 BKN160 07/03 Q1027 NOSIG
cycle: 0

Station Type Date Time Source
RJBB TAF 2019/12/06 18:08 UTC NOAA

TAF RJBB 061705Z 0618/0800 07007KT 9999 FEW025
BECMG 0712/0715 34014KT

Example: see airport list